Time;durP1;ratioP1;P1;durP2;ratioP2;P2;SDS_P1;SDS_P2;PMS_P1;PMS_P2;Temp;Humidity;BMP_temperature;BMP_pressure;BME280_temperature;BME280_humidity;BME280_pressure;Samples;Min_cycle;Max_cycle;Signal;HPM_P1;HPM_P2
2024/02/16 00:06:25;;;;;;;1.08;0.98;;;;;;;10.18;83.26;101146.47;15788240;28;19926;-53
2024/02/16 00:14:00;;;;;;;0.20;0.20;;;;;;;10.57;81.22;101149.59;15794848;28;20032;-49
2024/02/16 00:21:36;;;;;;;0.20;0.20;;;;;;;10.50;81.05;101149.56;15799746;28;20052;-49
2024/02/16 00:29:10;;;;;;;0.45;0.43;;;;;;;10.51;81.04;101153.06;15779848;28;20119;-53
2024/02/16 00:36:44;;;;;;;6.93;0.75;;;;;;;10.51;80.69;101137.81;15798999;28;20048;-52
2024/02/16 00:44:20;;;;;;;1.50;0.20;;;;;;;10.09;82.35;101134.25;15797868;28;20093;-50
2024/02/16 00:52:01;;;;;;;0.38;0.38;;;;;;;10.09;81.33;101120.00;15793048;28;20040;-51
2024/02/16 00:59:36;;;;;;;0.73;0.73;;;;;;;10.11;81.77;101134.03;15797496;28;20036;-49
2024/02/16 01:07:12;;;;;;;0.45;0.45;;;;;;;10.26;81.29;101132.13;15777842;28;20493;-49
2024/02/16 01:14:47;;;;;;;0.10;0.10;;;;;;;10.03;81.94;101118.13;15792607;28;20040;-49
2024/02/16 01:22:21;;;;;;;3.28;1.45;;;;;;;9.93;82.83;101122.00;15793743;28;20040;-49
2024/02/16 01:29:55;;;;;;;;;;;;;;;10.01;82.28;101106.75;15792464;28;20753;-51
2024/02/16 01:37:28;;;;;;;0.00;0.00;;;;;;;9.91;82.24;101107.94;15793948;28;19920;-49
2024/02/16 01:45:03;;;;;;;0.70;0.63;;;;;;;9.90;81.71;101094.72;15795919;28;20082;-49
2024/02/16 01:52:38;;;;;;;0.00;0.00;;;;;;;9.99;81.30;101087.38;15796169;28;20048;-50
2024/02/16 02:00:14;;;;;;;0.43;0.43;;;;;;;10.10;80.93;101076.88;15796596;28;20614;-48
2024/02/16 02:07:48;;;;;;;0.22;0.22;;;;;;;10.19;79.66;101078.38;15800397;28;20150;-49
2024/02/16 02:15:22;;;;;;;;;;;;;;;10.02;79.98;101066.31;15806922;28;20465;-50
2024/02/16 02:22:57;;;;;;;0.30;0.20;;;;;;;10.18;80.00;101054.44;15806130;28;20019;-49
2024/02/16 02:30:31;;;;;;;1.08;0.75;;;;;;;10.02;80.31;101047.53;15802849;28;20043;-49
2024/02/16 02:38:09;;;;;;;0.30;0.30;;;;;;;9.93;80.56;101035.34;15782688;28;20130;-48
2024/02/16 02:45:44;;;;;;;1.02;0.90;;;;;;;9.92;80.17;101020.28;15800429;28;20496;-49
2024/02/16 02:53:21;;;;;;;0.03;0.03;;;;;;;10.09;79.36;101012.72;15800494;28;20042;-48
2024/02/16 03:00:55;;;;;;;0.15;0.15;;;;;;;10.00;79.49;101009.38;15797828;28;20057;-48
2024/02/16 03:08:30;;;;;;;3.53;2.00;;;;;;;10.10;78.97;101009.84;15802254;28;20054;-47
2024/02/16 03:16:05;;;;;;;0.38;0.38;;;;;;;10.59;76.82;101021.38;15802904;28;20122;-48
2024/02/16 03:23:40;;;;;;;0.65;0.65;;;;;;;10.21;77.86;101017.31;15784108;28;20106;-49
2024/02/16 03:31:20;;;;;;;0.17;0.17;;;;;;;10.10;78.31;101009.00;15783336;28;20397;-47
2024/02/16 03:38:55;;;;;;;1.75;1.15;;;;;;;10.32;77.63;101012.44;15801323;28;20424;-50
2024/02/16 03:46:29;;;;;;;0.00;0.00;;;;;;;10.55;76.69;101015.59;15801054;28;20069;-46
2024/02/16 03:54:05;;;;;;;0.52;0.47;;;;;;;9.94;78.39;100996.78;15780317;28;20072;-48
2024/02/16 04:01:41;;;;;;;1.00;0.82;;;;;;;10.10;78.14;100993.75;15778378;22;20159;-51
2024/02/16 04:09:17;;;;;;;0.85;0.75;;;;;;;10.26;77.57;100991.75;15744160;28;20054;-50
2024/02/16 04:16:53;;;;;;;28.45;1.52;;;;;;;10.08;78.31;100982.41;15789922;28;20123;-51
2024/02/16 04:24:30;;;;;;;0.80;0.55;;;;;;;10.21;78.38;100987.81;15791733;28;20067;-49
2024/02/16 04:32:05;;;;;;;2.28;1.38;;;;;;;9.87;79.26;100980.66;15792239;28;20443;-48
2024/02/16 04:39:41;;;;;;;0.45;0.38;;;;;;;9.99;78.94;100972.06;15789446;28;20101;-49
2024/02/16 04:47:15;;;;;;;0.35;0.30;;;;;;;9.79;79.63;100962.09;15789206;28;20585;-48
2024/02/16 04:54:50;;;;;;;0.50;0.50;;;;;;;9.93;78.79;100961.09;15791371;28;20040;-52
2024/02/16 05:02:27;;;;;;;0.22;0.22;;;;;;;9.78;79.35;100960.41;15792041;28;20043;-52
2024/02/16 05:10:02;;;;;;;0.15;0.15;;;;;;;9.66;79.89;100962.84;15769966;28;20105;-52
2024/02/16 05:17:37;;;;;;;1.25;0.93;;;;;;;9.36;80.86;100956.88;15789149;28;20507;-52
2024/02/16 05:25:15;;;;;;;0.52;0.52;;;;;;;9.49;80.37;100958.81;15767901;28;20073;-48
2024/02/16 05:32:53;;;;;;;0.65;0.65;;;;;;;9.40;80.66;100943.94;15788453;28;20098;-49
2024/02/16 05:40:29;;;;;;;0.20;0.20;;;;;;;9.23;81.45;100932.69;15791268;28;20067;-52
2024/02/16 05:48:03;;;;;;;0.00;0.00;;;;;;;9.32;81.22;100934.19;15802899;28;20131;-53
2024/02/16 05:55:44;;;;;;;0.00;0.00;;;;;;;9.36;80.62;100926.59;15800762;28;20032;-52
2024/02/16 06:03:17;;;;;;;0.10;0.10;;;;;;;9.29;81.46;100917.72;15778785;28;20039;-50
2024/02/16 06:10:54;;;;;;;1.85;0.77;;;;;;;9.20;81.68;100909.00;15802024;28;20556;-52
2024/02/16 06:18:29;;;;;;;0.20;0.10;;;;;;;9.24;81.75;100910.25;15801514;28;20046;-52
2024/02/16 06:26:06;;;;;;;0.22;0.22;;;;;;;9.35;81.35;100892.81;15796329;28;20568;-51
2024/02/16 06:33:42;;;;;;;0.13;0.13;;;;;;;9.53;80.17;100921.75;15758761;28;20044;-53
2024/02/16 06:41:18;;;;;;;0.10;0.10;;;;;;;9.79;78.51;100931.75;15778533;28;20094;-49
2024/02/16 06:48:56;;;;;;;0.93;0.35;;;;;;;9.74;78.35;100926.16;15773403;28;20051;-50
2024/02/16 06:56:33;;;;;;;1.90;0.90;;;;;;;9.43;79.29;100922.94;15799075;28;20131;-51
2024/02/16 07:04:07;;;;;;;0.00;0.00;;;;;;;9.24;80.96;100928.19;15798440;28;20377;-51
2024/02/16 07:11:42;;;;;;;0.65;0.38;;;;;;;9.81;78.56;100930.53;15798181;28;20125;-52
2024/02/16 07:19:16;;;;;;;0.52;0.30;;;;;;;9.84;78.58;100932.81;15797218;28;20047;-49
2024/02/16 07:26:53;;;;;;;0.30;0.30;;;;;;;9.60;79.81;100930.63;15773605;28;20188;-50
2024/02/16 07:34:28;;;;;;;8.65;1.10;;;;;;;9.93;78.51;100928.94;15796867;28;20115;-51
2024/02/16 07:42:04;;;;;;;0.35;0.35;;;;;;;10.20;78.26;100918.25;15793638;28;20461;-51
2024/02/16 07:49:39;;;;;;;0.00;0.00;;;;;;;10.54;76.93;100903.03;15794010;28;20100;-55
2024/02/16 07:57:16;;;;;;;0.30;0.10;;;;;;;11.20;74.71;100901.16;15790828;28;20052;-50
2024/02/16 08:04:50;;;;;;;1.20;1.10;;;;;;;11.34;73.79;100895.75;15766370;28;20618;-54
2024/02/16 08:12:26;;;;;;;0.00;0.00;;;;;;;11.83;72.58;100883.56;15789822;28;20102;-54
2024/02/16 08:20:00;;;;;;;0.00;0.00;;;;;;;12.76;68.85;100927.66;15793319;28;20230;-50
2024/02/16 08:27:37;;;;;;;0.28;0.28;;;;;;;12.36;70.24;100921.75;15794035;28;20277;-48
2024/02/16 08:35:14;;;;;;;0.30;0.30;;;;;;;12.66;69.25;100913.84;15794065;28;20094;-48
2024/02/16 08:42:50;;;;;;;0.65;0.55;;;;;;;12.02;70.91;100909.53;15770319;28;20468;-52
2024/02/16 08:50:24;;;;;;;0.93;0.43;;;;;;;12.07;71.34;100903.50;15792455;28;20055;-54
2024/02/16 08:57:59;;;;;;;0.00;0.00;;;;;;;12.65;69.70;100904.13;15792325;28;20036;-52
2024/02/16 09:05:34;;;;;;;0.30;0.28;;;;;;;12.52;69.63;100905.06;15791477;28;20040;-52
2024/02/16 09:13:09;;;;;;;0.20;0.13;;;;;;;12.57;68.73;100896.31;15786498;28;20473;-53
2024/02/16 09:20:44;;;;;;;0.00;0.00;;;;;;;12.73;68.31;100893.09;15794788;28;20517;-55
2024/02/16 09:28:20;;;;;;;0.00;0.00;;;;;;;12.86;67.29;100891.31;15799386;28;20054;-53
2024/02/16 09:35:54;;;;;;;0.08;0.08;;;;;;;12.74;67.18;100896.59;15799996;28;20044;-53
2024/02/16 09:43:30;;;;;;;0.65;0.43;;;;;;;13.13;66.35;100908.88;15794533;28;20051;-53
2024/02/16 09:51:04;;;;;;;1.45;0.88;;;;;;;13.20;65.87;100904.25;15782223;28;20180;-53
2024/02/16 09:58:39;;;;;;;0.70;0.52;;;;;;;13.67;63.98;100903.75;15800925;22;20036;-75
2024/02/16 10:06:15;;;;;;;0.00;0.00;;;;;;;13.37;64.55;100911.75;15779444;28;20138;-74
2024/02/16 10:13:59;;;;;;;0.00;0.00;;;;;;;13.40;64.80;100909.44;15800648;28;20044;-75
2024/02/16 10:21:35;;;;;;;0.43;0.32;;;;;;;13.36;64.66;100902.03;15800572;28;20063;-74
2024/02/16 10:29:11;;;;;;;0.20;0.20;;;;;;;13.32;64.59;100907.03;15799042;28;20044;-75
2024/02/16 10:36:49;;;;;;;0.73;0.63;;;;;;;13.40;65.34;100901.34;15793805;28;20052;-74
2024/02/16 10:44:24;;;;;;;0.55;0.17;;;;;;;13.53;65.08;100900.38;15774702;28;20041;-74
2024/02/16 10:52:01;;;;;;;0.60;0.50;;;;;;;13.72;64.60;100888.53;15775624;28;20126;-75
2024/02/16 10:59:44;;;;;;;0.60;0.17;;;;;;;14.25;63.19;100876.97;15772405;28;20040;-74
2024/02/16 11:07:21;;;;;;;0.10;0.10;;;;;;;14.11;62.63;100878.22;15776883;28;20032;-75
2024/02/16 11:14:58;;;;;;;0.20;0.20;;;;;;;14.71;60.97;100872.72;15793360;28;20068;-75
2024/02/16 11:22:32;;;;;;;0.10;0.10;;;;;;;14.90;59.82;100869.91;15791281;28;20044;-75
2024/02/16 11:30:11;;;;;;;0.20;0.20;;;;;;;14.90;60.25;100849.09;15771480;28;20093;-74
2024/02/16 11:37:47;;;;;;;0.00;0.00;;;;;;;15.34;59.19;100851.38;15790505;28;20114;-74
2024/02/16 11:45:21;;;;;;;0.40;0.40;;;;;;;15.45;59.16;100845.97;15770573;28;20044;-74
2024/02/16 11:52:55;;;;;;;2.05;1.00;;;;;;;15.24;58.84;100850.13;15771325;28;20093;-74
2024/02/16 12:00:31;;;;;;;0.98;0.70;;;;;;;15.48;58.31;100845.50;15767440;28;20054;-74
2024/02/16 12:08:07;;;;;;;0.43;0.43;;;;;;;16.26;56.99;100840.44;15776000;28;20044;-74
2024/02/16 12:15:42;;;;;;;0.47;0.47;;;;;;;17.27;54.00;100854.72;15793799;28;20055;-73
2024/02/16 12:23:16;;;;;;;0.43;0.28;;;;;;;18.51;50.59;100846.75;15792028;28;20063;-73
2024/02/16 12:30:52;;;;;;;0.00;0.00;;;;;;;17.90;51.06;100840.78;15791690;28;20028;-74
2024/02/16 12:38:27;;;;;;;0.20;0.20;;;;;;;16.72;53.49;100843.91;15762395;28;20252;-72
2024/02/16 12:46:04;;;;;;;0.17;0.17;;;;;;;16.05;56.20;100847.41;15786783;28;20040;-76
2024/02/16 12:53:41;;;;;;;0.43;0.43;;;;;;;15.94;56.95;100837.44;15762530;28;20104;-74
2024/02/16 13:01:17;;;;;;;0.55;0.50;;;;;;;16.26;55.54;100837.72;15787479;28;20059;-73
2024/02/16 13:08:54;;;;;;;0.80;0.55;;;;;;;16.02;56.42;100851.41;15772872;28;20047;-74
2024/02/16 13:16:29;;;;;;;0.10;0.10;;;;;;;15.94;56.71;100842.84;15746313;28;20036;-74
2024/02/16 13:24:03;;;;;;;0.00;0.00;;;;;;;15.66;56.99;100846.38;15788775;28;20583;-74
2024/02/16 13:31:40;;;;;;;0.00;0.00;;;;;;;15.67;58.02;100823.69;15791591;28;20557;-73
2024/02/16 13:39:15;;;;;;;0.10;0.10;;;;;;;15.62;58.26;100832.50;15790747;28;20466;-74
2024/02/16 13:46:51;;;;;;;0.10;0.10;;;;;;;15.97;57.68;100845.91;15789177;28;20040;-75
2024/02/16 13:54:25;;;;;;;0.60;0.30;;;;;;;15.87;57.36;100842.19;15788682;28;20078;-74
2024/02/16 14:02:00;;;;;;;1.08;0.45;;;;;;;15.85;57.83;100845.13;15785444;28;20047;-75
2024/02/16 14:09:34;;;;;;;0.57;0.20;;;;;;;16.15;57.29;100827.78;15797646;28;20055;-75
2024/02/16 14:17:09;;;;;;;1.17;0.70;;;;;;;16.13;57.18;100828.00;15800280;28;20089;-73
2024/02/16 14:24:43;;;;;;;0.20;0.20;;;;;;;16.12;57.66;100839.91;15801700;28;20044;-75
2024/02/16 14:32:18;;;;;;;0.10;0.10;;;;;;;15.87;57.90;100829.47;15801677;28;20523;-75
2024/02/16 14:39:56;;;;;;;0.00;0.00;;;;;;;16.08;57.59;100845.00;15794077;28;20052;-75
2024/02/16 14:47:31;;;;;;;0.00;0.00;;;;;;;15.83;58.28;100855.38;15798415;28;20071;-74
2024/02/16 14:55:10;;;;;;;0.00;0.00;;;;;;;15.39;59.42;100860.44;15797563;28;20051;-75
2024/02/16 15:02:47;;;;;;;0.03;0.03;;;;;;;15.35;59.84;100863.88;15792653;28;20133;-74
2024/02/16 15:10:21;;;;;;;0.00;0.00;;;;;;;15.08;60.80;100869.78;15777458;28;20048;-73
2024/02/16 15:18:00;;;;;;;0.00;0.00;;;;;;;15.58;59.94;100863.81;15778446;22;20052;-52
2024/02/16 15:25:33;;;;;;;0.25;0.25;;;;;;;15.18;60.65;100867.28;15768199;28;20131;-51
2024/02/16 15:33:09;;;;;;;0.00;0.00;;;;;;;15.14;61.34;100879.66;15770785;28;20484;-52
2024/02/16 15:40:44;;;;;;;0.00;0.00;;;;;;;15.34;60.54;100884.69;15805681;28;20047;-56
2024/02/16 15:48:21;;;;;;;0.05;0.05;;;;;;;15.14;61.44;100881.53;15768687;28;20040;-53
2024/02/16 15:55:55;;;;;;;0.22;0.20;;;;;;;14.89;62.46;100912.34;15804356;28;20511;-55
2024/02/16 16:03:30;;;;;;;0.00;0.00;;;;;;;15.12;61.78;100926.91;15728452;22;20039;-52
2024/02/16 16:11:06;;;;;;;0.25;0.25;;;;;;;15.31;61.34;100920.31;15722173;28;20523;-51
2024/02/16 16:18:46;;;;;;;0.00;0.00;;;;;;;15.39;60.79;100933.47;15792033;28;20110;-49
2024/02/16 16:26:24;;;;;;;0.00;0.00;;;;;;;15.20;62.14;100940.06;15790764;28;20063;-49
2024/02/16 16:33:59;;;;;;;0.17;0.17;;;;;;;14.75;62.61;100949.56;15781727;28;20119;-46
2024/02/16 16:41:33;;;;;;;0.10;0.10;;;;;;;15.17;61.64;100963.00;15788923;28;20121;-51
2024/02/16 16:49:08;;;;;;;0.00;0.00;;;;;;;14.91;62.34;100968.84;15787808;28;20058;-51
2024/02/16 16:56:41;;;;;;;0.08;0.08;;;;;;;14.83;62.85;100971.88;15747900;28;20048;-47
2024/02/16 17:04:16;;;;;;;0.00;0.00;;;;;;;14.84;63.43;100990.59;15791595;28;20053;-53
2024/02/16 17:11:54;;;;;;;0.00;0.00;;;;;;;14.60;64.08;100989.72;15792300;28;20044;-51
2024/02/16 17:19:30;;;;;;;0.17;0.17;;;;;;;14.87;63.54;101000.09;15773069;28;20192;-48
2024/02/16 17:27:08;;;;;;;0.00;0.00;;;;;;;14.86;63.43;101004.69;15770010;28;20051;-52
2024/02/16 17:34:44;;;;;;;0.00;0.00;;;;;;;14.39;64.55;101004.50;15765501;28;20044;-47
2024/02/16 17:42:20;;;;;;;1.35;0.38;;;;;;;14.60;65.69;101011.34;15803009;28;20477;-50
2024/02/16 17:49:55;;;;;;;0.00;0.00;;;;;;;14.21;67.59;101029.66;15783635;28;20062;-48
2024/02/16 17:57:29;;;;;;;0.13;0.13;;;;;;;14.08;68.79;101032.53;15798487;28;20173;-50
2024/02/16 18:05:05;;;;;;;0.00;0.00;;;;;;;14.04;69.18;101034.88;15776191;28;20044;-50
2024/02/16 18:12:39;;;;;;;0.35;0.35;;;;;;;14.03;69.46;101041.34;15773707;28;20044;-52
2024/02/16 18:20:15;;;;;;;0.20;0.20;;;;;;;14.44;67.97;101050.56;15764921;28;20446;-50
2024/02/16 18:27:50;;;;;;;0.10;0.10;;;;;;;14.17;68.60;101062.75;15775757;28;20048;-52
2024/02/16 18:35:25;;;;;;;0.43;0.43;;;;;;;14.28;68.80;101068.22;15779864;28;20059;-52
2024/02/16 18:42:59;;;;;;;0.10;0.10;;;;;;;14.27;68.80;101069.28;15796725;28;20062;-53
2024/02/16 18:50:35;;;;;;;0.00;0.00;;;;;;;13.97;69.84;101082.69;15799641;28;20662;-46
2024/02/16 18:58:12;;;;;;;1.55;0.95;;;;;;;14.10;70.72;101081.72;15800184;28;20087;-47
2024/02/16 19:05:47;;;;;;;0.05;0.05;;;;;;;14.23;70.64;101095.09;15799393;28;20097;-53
2024/02/16 19:13:21;;;;;;;0.38;0.38;;;;;;;14.07;72.02;101102.94;15794260;28;20556;-49
2024/02/16 19:20:57;;;;;;;0.00;0.00;;;;;;;14.05;72.61;101105.88;15793495;28;20048;-48
2024/02/16 19:28:30;;;;;;;0.03;0.03;;;;;;;14.13;72.23;101113.69;15796295;28;20184;-49
2024/02/16 19:36:06;;;;;;;4.57;1.20;;;;;;;14.25;71.71;101111.88;15797345;28;20060;-49
2024/02/16 19:43:40;;;;;;;5.05;0.32;;;;;;;13.84;73.61;101119.78;15796264;28;20046;-55
2024/02/16 19:51:15;;;;;;;0.00;0.00;;;;;;;14.25;72.75;101135.34;15792258;28;20524;-45
2024/02/16 19:58:50;;;;;;;0.08;0.08;;;;;;;13.76;75.40;101121.75;15772505;28;20402;-54
2024/02/16 20:06:28;;;;;;;0.63;0.63;;;;;;;13.70;75.87;101136.09;15794832;28;20098;-48
2024/02/16 20:14:02;;;;;;;0.15;0.15;;;;;;;14.13;74.36;101153.31;15791582;28;20150;-46
2024/02/16 20:21:37;;;;;;;0.65;0.30;;;;;;;13.35;80.18;101167.31;15792986;28;20131;-47
2024/02/16 20:29:11;;;;;;;0.10;0.10;;;;;;;13.26;81.88;101178.34;15768667;28;20105;-48
2024/02/16 20:36:49;;;;;;;0.40;0.30;;;;;;;13.46;81.71;101188.16;15787439;28;20040;-52
2024/02/16 20:44:22;;;;;;;2.28;0.98;;;;;;;13.34;82.60;101193.44;15789837;28;20123;-52
2024/02/16 20:51:57;;;;;;;0.10;0.10;;;;;;;13.38;82.87;101202.75;15791948;28;20055;-50
2024/02/16 20:59:35;;;;;;;0.00;0.00;;;;;;;12.97;86.04;101205.84;15765447;28;20170;-50
2024/02/16 21:07:12;;;;;;;1.10;0.70;;;;;;;12.83;87.35;101215.84;15772743;28;20488;-51
2024/02/16 21:14:47;;;;;;;0.00;0.00;;;;;;;12.68;88.71;101240.38;15791183;28;20044;-51
2024/02/16 21:22:23;;;;;;;3.10;0.68;;;;;;;12.99;87.54;101245.00;15789997;28;20051;-46
2024/02/16 21:30:01;;;;;;;0.00;0.00;;;;;;;12.66;89.05;101253.19;15787315;28;20082;-46
2024/02/16 21:37:36;;;;;;;0.00;0.00;;;;;;;12.62;89.65;101262.72;15787615;28;20044;-45
2024/02/16 21:45:11;;;;;;;0.63;0.52;;;;;;;12.47;90.75;101264.84;15768817;28;20051;-45
2024/02/16 21:52:46;;;;;;;0.25;0.20;;;;;;;12.66;89.46;101277.44;15785731;28;20489;-51
2024/02/16 22:00:21;;;;;;;0.95;0.95;;;;;;;12.41;90.23;101288.06;15778259;22;20152;-75
2024/02/16 22:07:56;;;;;;;0.45;0.17;;;;;;;12.56;89.33;101293.22;15732873;28;20474;-73
2024/02/16 22:15:35;;;;;;;0.38;0.32;;;;;;;12.43;89.70;101295.91;15788575;28;20032;-72
2024/02/16 22:23:10;;;;;;;1.75;0.50;;;;;;;12.27;90.54;101304.44;15767922;28;20176;-73
2024/02/16 22:30:44;;;;;;;0.25;0.25;;;;;;;12.09;91.62;101305.88;15797430;28;20043;-72
2024/02/16 22:38:19;;;;;;;0.20;0.20;;;;;;;12.52;90.59;101310.81;15797663;28;20401;-73
2024/02/16 22:45:54;;;;;;;3.20;0.98;;;;;;;12.41;90.31;101319.53;15799261;28;20047;-75
2024/02/16 22:53:29;;;;;;;0.80;0.75;;;;;;;12.24;90.74;101330.72;15798481;28;20092;-75
2024/02/16 23:01:06;;;;;;;0.85;0.55;;;;;;;12.13;91.72;101334.03;15796966;28;20390;-74
2024/02/16 23:08:42;;;;;;;0.43;0.38;;;;;;;12.32;89.42;101356.59;15792721;28;20466;-73
2024/02/16 23:16:16;;;;;;;2.28;0.80;;;;;;;12.36;87.99;101376.69;15793203;28;20044;-73
2024/02/16 23:23:52;;;;;;;0.68;0.68;;;;;;;12.39;88.32;101381.66;15767423;28;20044;-73
2024/02/16 23:31:29;;;;;;;0.35;0.35;;;;;;;11.87;90.50;101385.91;15791427;28;20040;-72
2024/02/16 23:39:06;;;;;;;0.93;0.80;;;;;;;12.09;89.29;101410.00;15789421;28;20050;-73
2024/02/16 23:46:40;;;;;;;0.52;0.52;;;;;;;12.51;nan;101408.78;15788174;28;20518;-73
2024/02/16 23:54:15;;;;;;;0.45;0.45;;;;;;;11.90;89.38;101404.34;15767007;28;20390;-73
